createdAt,value
2022-11-02T00:00:21.917Z,7.70
2022-11-02T00:02:48.603Z,7.70
2022-11-02T00:05:15.315Z,7.70
2022-11-02T00:07:42.154Z,7.70
2022-11-02T00:10:09.611Z,7.70
2022-11-02T00:12:36.159Z,7.70
2022-11-02T00:15:03.274Z,7.70
2022-11-02T00:17:29.971Z,7.60
2022-11-02T00:19:56.559Z,7.60
2022-11-02T00:22:23.541Z,7.60
2022-11-02T00:24:50.088Z,7.50
2022-11-02T00:27:16.621Z,7.50
2022-11-02T00:29:43.157Z,7.50
2022-11-02T00:32:09.672Z,7.40
2022-11-02T00:34:36.167Z,7.40
2022-11-02T00:37:02.948Z,7.40
2022-11-02T00:39:29.554Z,7.40
2022-11-02T00:41:56.072Z,7.40
2022-11-02T00:44:22.642Z,7.40
2022-11-02T00:46:49.225Z,7.30
2022-11-02T00:49:15.784Z,7.30
2022-11-02T00:51:43.330Z,7.40
2022-11-02T00:54:09.873Z,7.40
2022-11-02T00:56:39.006Z,7.40
2022-11-02T00:59:05.562Z,7.40
2022-11-02T01:01:32.248Z,7.40
2022-11-02T01:03:58.973Z,7.40
2022-11-02T01:06:25.530Z,7.30
2022-11-02T01:08:52.798Z,7.30
2022-11-02T01:11:20.427Z,7.30
2022-11-02T01:13:47.125Z,7.30
2022-11-02T01:16:14.358Z,7.20
2022-11-02T01:18:41.148Z,7.20
2022-11-02T01:21:08.212Z,7.20
2022-11-02T01:23:35.762Z,7.20
2022-11-02T01:26:03.516Z,7.10
2022-11-02T01:28:30.104Z,7.10
2022-11-02T01:30:56.660Z,7.20
2022-11-02T01:33:23.278Z,7.20
2022-11-02T01:35:49.802Z,7.20
2022-11-02T01:38:16.464Z,7.20
2022-11-02T01:40:43.008Z,7.20
2022-11-02T01:43:21.802Z,7.20
2022-11-02T01:45:50.463Z,7.20
2022-11-02T01:48:17.777Z,7.10
2022-11-02T01:50:44.389Z,7.10
2022-11-02T01:53:10.921Z,7.00
2022-11-02T01:55:37.445Z,6.90
2022-11-02T01:58:09.658Z,7.00
2022-11-02T02:00:38.025Z,6.90
2022-11-02T02:03:09.319Z,7.00
2022-11-02T02:05:41.441Z,6.90
2022-11-02T02:08:09.808Z,6.90
2022-11-02T02:10:36.757Z,6.90
2022-11-02T02:13:04.199Z,6.90
2022-11-02T02:15:37.046Z,7.00
2022-11-02T02:18:33.119Z,6.90
2022-11-02T02:21:05.211Z,6.90
2022-11-02T02:23:55.618Z,6.80
2022-11-02T02:26:41.985Z,6.70
2022-11-02T02:29:15.864Z,6.70
2022-11-02T02:31:48.575Z,6.60
2022-11-02T02:34:24.578Z,6.50
2022-11-02T02:37:10.016Z,6.50
2022-11-02T02:39:42.978Z,6.40
2022-11-02T02:42:17.514Z,6.50
2022-11-02T02:44:46.560Z,6.50
2022-11-02T02:50:47.475Z,6.40
2022-11-02T02:53:14.910Z,6.30
2022-11-02T02:55:44.783Z,6.30
2022-11-02T02:58:17.110Z,6.30
2022-11-02T03:00:44.263Z,6.30
2022-11-02T03:03:15.385Z,6.30
2022-11-02T03:05:41.902Z,6.20
2022-11-02T03:08:12.171Z,6.30
2022-11-02T03:10:44.678Z,6.30
2022-11-02T03:13:29.831Z,6.40
2022-11-02T03:15:59.739Z,6.40
2022-11-02T03:18:54.202Z,6.50
2022-11-02T03:21:27.723Z,6.60
2022-11-02T03:24:03.381Z,6.60
2022-11-02T03:26:33.492Z,6.80
2022-11-02T03:29:03.134Z,6.90
2022-11-02T03:31:47.125Z,7.00
2022-11-02T03:34:19.747Z,7.10
2022-11-02T03:36:49.317Z,7.20
2022-11-02T03:39:17.977Z,7.30
2022-11-02T03:41:45.397Z,7.30
2022-11-02T03:44:14.288Z,7.30
2022-11-02T03:46:42.656Z,7.30
2022-11-02T03:49:11.901Z,7.30
2022-11-02T03:51:39.828Z,7.30
2022-11-02T03:54:17.781Z,7.40
2022-11-02T03:56:46.331Z,7.50
2022-11-02T03:59:13.394Z,7.60
2022-11-02T04:01:41.895Z,7.80
2022-11-02T04:04:08.624Z,8.00
2022-11-02T04:06:35.409Z,8.20
2022-11-02T04:09:01.937Z,8.30
2022-11-02T04:11:47.335Z,8.40
2022-11-02T04:14:32.144Z,8.50
2022-11-02T04:17:17.903Z,8.60
2022-11-02T04:19:48.638Z,8.70
2022-11-02T04:22:35.943Z,8.70
2022-11-02T04:25:20.776Z,8.70
2022-11-02T04:27:48.530Z,8.70
2022-11-02T04:30:15.829Z,8.70
2022-11-02T04:33:05.305Z,8.70
2022-11-02T04:35:32.231Z,8.70
2022-11-02T04:38:17.625Z,8.60
2022-11-02T04:40:44.423Z,8.60
2022-11-02T04:43:10.994Z,8.50
2022-11-02T04:45:37.846Z,8.50
2022-11-02T04:48:06.309Z,8.40
2022-11-02T04:50:33.365Z,8.30
2022-11-02T04:53:00.853Z,8.20
2022-11-02T04:55:27.842Z,8.10
2022-11-02T04:57:54.579Z,8.10
2022-11-02T05:00:21.885Z,8.10
2022-11-02T05:02:48.957Z,8.00
2022-11-02T05:05:16.461Z,8.00
2022-11-02T05:07:43.177Z,7.90
2022-11-02T05:10:10.252Z,7.90
2022-11-02T05:12:37.002Z,7.80
2022-11-02T05:15:04.826Z,7.80
2022-11-02T05:17:31.417Z,7.70
2022-11-02T05:19:57.966Z,7.60
2022-11-02T05:22:24.576Z,7.50
2022-11-02T05:24:51.130Z,7.50
2022-11-02T05:27:17.693Z,7.40
2022-11-02T05:29:44.342Z,7.40
2022-11-02T05:32:10.929Z,7.30
2022-11-02T05:34:37.470Z,7.30
2022-11-02T05:37:04.059Z,7.30
2022-11-02T05:39:30.610Z,7.30
2022-11-02T05:41:57.138Z,7.30
2022-11-02T05:44:23.699Z,7.30
2022-11-02T05:46:50.258Z,7.30
2022-11-02T05:49:16.770Z,7.30
2022-11-02T05:51:43.812Z,7.30
2022-11-02T05:54:10.378Z,7.40
2022-11-02T05:56:36.929Z,7.30
2022-11-02T05:59:03.462Z,7.30
2022-11-02T06:01:30.061Z,7.20
2022-11-02T06:03:57.005Z,7.20
2022-11-02T06:06:24.193Z,7.30
2022-11-02T06:08:50.717Z,7.30
2022-11-02T06:11:18.230Z,7.40
2022-11-02T06:13:44.740Z,7.40
2022-11-02T06:16:12.285Z,7.60
2022-11-02T06:18:38.842Z,7.70
2022-11-02T06:21:05.498Z,7.80
2022-11-02T06:23:32.206Z,7.90
2022-11-02T06:25:59.656Z,8.00
2022-11-02T06:28:26.738Z,8.00
2022-11-02T06:30:53.427Z,8.10
2022-11-02T06:33:20.290Z,8.10
2022-11-02T06:35:48.038Z,8.00
2022-11-02T06:38:14.648Z,8.00
2022-11-02T06:40:41.373Z,8.00
2022-11-02T06:43:16.404Z,8.00
2022-11-02T06:45:43.832Z,7.90
2022-11-02T06:48:10.379Z,7.90
2022-11-02T06:50:36.919Z,7.90
2022-11-02T06:53:04.115Z,8.00
2022-11-02T06:55:30.960Z,8.00
2022-11-02T06:57:57.461Z,8.10
2022-11-02T07:00:24.316Z,8.10
2022-11-02T07:03:01.499Z,8.20
2022-11-02T07:05:28.562Z,8.30
2022-11-02T07:07:55.357Z,8.40
2022-11-02T07:10:21.898Z,8.40
2022-11-02T07:12:57.151Z,8.50
2022-11-02T07:15:24.698Z,8.50
2022-11-02T07:17:51.763Z,8.60
2022-11-02T07:20:18.310Z,8.70
2022-11-02T07:22:58.174Z,8.80
2022-11-02T07:25:25.481Z,8.90
2022-11-02T07:27:52.050Z,9.20
2022-11-02T07:30:18.801Z,9.40
2022-11-02T07:32:46.180Z,9.50
2022-11-02T07:35:14.257Z,9.70
2022-11-02T07:37:41.150Z,9.80
2022-11-02T07:40:08.358Z,10.00
2022-11-02T07:42:35.398Z,10.00
2022-11-02T07:45:01.965Z,10.10
2022-11-02T07:47:30.111Z,10.20
2022-11-02T07:49:59.022Z,10.30
2022-11-02T07:52:25.896Z,10.40
2022-11-02T07:54:52.441Z,10.50
2022-11-02T07:57:18.976Z,10.60
2022-11-02T07:59:45.469Z,10.70
2022-11-02T08:02:13.446Z,10.80
2022-11-02T08:04:43.912Z,10.90
2022-11-02T08:07:12.490Z,10.90
2022-11-02T08:09:39.311Z,10.90
2022-11-02T08:12:05.969Z,11.10
2022-11-02T08:14:32.506Z,11.20
2022-11-02T08:16:58.997Z,11.30
2022-11-02T08:19:25.525Z,11.40
2022-11-02T08:21:52.838Z,11.60
2022-11-02T08:24:19.381Z,11.80
2022-11-02T08:26:46.774Z,12.10
2022-11-02T08:29:15.047Z,12.20
2022-11-02T08:31:41.594Z,12.20
2022-11-02T08:34:08.129Z,12.20
2022-11-02T08:36:37.455Z,12.40
2022-11-02T08:39:04.018Z,12.50
2022-11-02T08:41:30.542Z,12.60
2022-11-02T08:43:57.567Z,12.60
2022-11-02T08:46:24.058Z,12.60
2022-11-02T08:48:50.768Z,12.50
2022-11-02T08:51:17.320Z,12.50
2022-11-02T08:53:47.244Z,12.50
2022-11-02T08:56:16.903Z,12.50
2022-11-02T08:58:43.436Z,12.50
2022-11-02T09:01:10.014Z,12.40
2022-11-02T09:03:36.595Z,12.40
2022-11-02T09:06:03.209Z,12.40
2022-11-02T09:08:30.103Z,12.30
2022-11-02T09:10:58.850Z,12.30
2022-11-02T09:13:25.756Z,12.40
2022-11-02T09:15:53.714Z,12.40
2022-11-02T09:18:20.286Z,12.50
2022-11-02T09:20:48.536Z,12.50
2022-11-02T09:23:19.374Z,12.60
2022-11-02T09:25:45.927Z,12.70
2022-11-02T09:28:13.923Z,12.70
2022-11-02T09:30:40.487Z,12.70
2022-11-02T09:33:07.657Z,12.60
2022-11-02T09:35:35.802Z,12.50
2022-11-02T09:38:02.443Z,12.50
2022-11-02T09:40:31.161Z,12.50
2022-11-02T09:43:14.456Z,12.60
2022-11-02T09:46:04.357Z,12.70
2022-11-02T09:48:36.669Z,12.80
2022-11-02T09:51:05.553Z,12.90
2022-11-02T09:53:41.251Z,12.90
2022-11-02T09:56:08.921Z,13.00
2022-11-02T09:58:39.382Z,13.00
2022-11-02T10:01:11.169Z,13.00
2022-11-02T10:03:57.234Z,13.00
2022-11-02T10:06:24.666Z,13.10
2022-11-02T10:08:57.568Z,13.20
2022-11-02T10:11:34.520Z,13.30
2022-11-02T10:14:05.715Z,13.30
2022-11-02T10:16:44.503Z,13.20
2022-11-02T10:19:16.870Z,13.20
2022-11-02T10:21:45.092Z,13.10
2022-11-02T10:24:22.337Z,13.10
2022-11-02T10:26:49.174Z,13.10
2022-11-02T10:29:17.747Z,13.10
2022-11-02T10:31:44.510Z,13.20
2022-11-02T10:34:17.140Z,13.20
2022-11-02T10:36:49.779Z,13.30
2022-11-02T10:39:29.750Z,13.30
2022-11-02T10:42:03.617Z,13.40
2022-11-02T10:44:33.237Z,13.50
2022-11-02T10:46:59.743Z,13.50
2022-11-02T10:49:45.115Z,13.40
2022-11-02T10:52:13.526Z,13.30
2022-11-02T10:54:40.083Z,13.10
2022-11-02T10:57:13.618Z,13.00
2022-11-02T10:59:40.339Z,12.90
2022-11-02T11:02:14.003Z,12.80
2022-11-02T11:04:41.332Z,12.90
2022-11-02T11:07:16.491Z,12.90
2022-11-02T11:09:48.196Z,13.10
2022-11-02T11:12:14.671Z,13.10
2022-11-02T11:20:35.745Z,13.20
2022-11-02T11:23:09.314Z,13.10
2022-11-02T11:25:35.847Z,13.00
2022-11-02T11:28:02.853Z,12.90
2022-11-02T11:33:17.438Z,12.80
2022-11-02T11:35:47.601Z,12.80
2022-11-02T11:38:15.622Z,12.80
2022-11-02T11:40:47.406Z,12.70
2022-11-02T11:43:17.178Z,12.80
2022-11-02T11:46:05.153Z,12.80
2022-11-02T11:48:39.085Z,12.90
2022-11-02T11:51:24.347Z,13.00
2022-11-02T11:54:10.802Z,13.00
2022-11-02T11:56:37.429Z,13.00
2022-11-02T11:59:04.059Z,12.90
2022-11-02T12:01:40.418Z,12.90
2022-11-02T12:04:07.593Z,13.00
2022-11-02T12:06:56.413Z,13.10
2022-11-02T12:09:29.777Z,13.10
2022-11-02T12:12:06.557Z,13.10
2022-11-02T12:14:46.881Z,13.10
2022-11-02T12:17:13.429Z,13.00
2022-11-02T12:19:46.100Z,13.00
2022-11-02T12:22:12.732Z,13.10
2022-11-02T12:24:46.792Z,13.10
2022-11-02T12:27:24.243Z,13.10
2022-11-02T12:30:12.327Z,13.10
2022-11-02T12:32:41.885Z,13.10
2022-11-02T12:35:29.836Z,13.20
2022-11-02T12:38:15.737Z,13.30
2022-11-02T12:40:50.308Z,13.40
2022-11-02T12:43:35.722Z,13.50
2022-11-02T12:46:07.553Z,13.60
2022-11-02T12:48:54.519Z,13.60
2022-11-02T12:51:29.018Z,13.50
2022-11-02T12:53:57.555Z,13.40
2022-11-02T12:56:44.297Z,13.30
2022-11-02T12:59:19.432Z,13.20
2022-11-02T13:01:47.413Z,13.00
2022-11-02T13:04:36.932Z,12.90
2022-11-02T13:07:09.253Z,12.80
2022-11-02T13:09:35.806Z,12.70
2022-11-02T13:12:05.886Z,12.70
2022-11-02T13:14:36.097Z,12.60
2022-11-02T13:17:11.631Z,12.70
2022-11-02T13:20:07.793Z,12.70
2022-11-02T13:22:38.144Z,12.70
2022-11-02T13:25:07.743Z,12.70
2022-11-02T13:27:40.754Z,12.70
2022-11-02T13:30:14.342Z,12.60
2022-11-02T13:32:44.499Z,12.70
2022-11-02T13:35:31.285Z,12.60
2022-11-02T13:38:01.773Z,12.60
2022-11-02T13:40:31.570Z,12.60
2022-11-02T13:43:16.352Z,12.50
2022-11-02T13:45:55.345Z,12.50
2022-11-02T13:48:28.133Z,12.50
2022-11-02T13:50:57.189Z,12.40
2022-11-02T13:53:27.550Z,12.40
2022-11-02T13:56:01.237Z,12.30
2022-11-02T13:58:31.263Z,12.40
2022-11-02T14:01:02.584Z,12.40
2022-11-02T14:03:47.338Z,12.40
2022-11-02T14:06:15.210Z,12.30
2022-11-02T14:08:58.677Z,12.20
2022-11-02T14:11:46.080Z,12.20
2022-11-02T14:14:17.231Z,12.20
2022-11-02T14:16:49.572Z,12.10
2022-11-02T14:19:19.390Z,12.20
2022-11-02T14:21:49.805Z,12.20
2022-11-02T14:24:34.627Z,12.30
2022-11-02T14:27:13.524Z,12.30
2022-11-02T14:29:46.383Z,12.20
2022-11-02T14:32:23.905Z,12.10
2022-11-02T14:35:05.661Z,12.00
2022-11-02T14:37:35.327Z,12.00
2022-11-02T14:40:20.659Z,11.90
2022-11-02T14:42:53.255Z,11.80
2022-11-02T14:45:38.604Z,11.90
2022-11-02T14:48:05.673Z,11.80
2022-11-02T14:50:32.726Z,11.70
2022-11-02T14:53:08.677Z,11.70
2022-11-02T14:55:36.657Z,11.60
2022-11-02T14:58:11.013Z,11.60
2022-11-02T15:00:37.918Z,11.50
2022-11-02T15:03:07.555Z,11.50
2022-11-02T15:05:35.984Z,11.40
2022-11-02T15:08:06.614Z,11.40
2022-11-02T15:10:37.934Z,11.30
2022-11-02T15:13:19.402Z,11.20
2022-11-02T15:15:46.068Z,11.10
2022-11-02T15:21:41.703Z,11.00
2022-11-02T15:24:17.409Z,10.90
2022-11-02T15:26:59.005Z,10.90
2022-11-02T15:29:34.363Z,10.80
2022-11-02T15:32:01.568Z,10.80
2022-11-02T15:34:33.157Z,10.80
2022-11-02T15:37:00.057Z,10.80
2022-11-02T15:39:26.622Z,10.80
2022-11-02T15:42:03.933Z,10.80
2022-11-02T15:44:49.354Z,10.70
2022-11-02T15:47:26.991Z,10.70
2022-11-02T15:50:12.512Z,10.60
2022-11-02T15:53:16.479Z,10.60
2022-11-02T15:56:07.373Z,10.50
2022-11-02T15:58:42.763Z,10.30
2022-11-02T16:01:18.928Z,10.20
2022-11-02T16:03:47.110Z,10.10
2022-11-02T16:06:13.940Z,10.00
2022-11-02T16:08:40.701Z,9.90
2022-11-02T16:11:33.631Z,9.90
2022-11-02T16:14:26.531Z,9.80
2022-11-02T16:16:53.108Z,9.70
2022-11-02T16:19:20.656Z,9.60
2022-11-02T16:21:48.085Z,9.50
2022-11-02T16:24:14.875Z,9.40
2022-11-02T16:26:42.376Z,9.40
2022-11-02T16:29:10.466Z,9.30
2022-11-02T16:31:37.926Z,9.20
2022-11-02T16:34:24.504Z,9.10
2022-11-02T16:36:51.421Z,9.00
2022-11-02T16:39:47.537Z,8.90
2022-11-02T16:42:18.961Z,8.90
2022-11-02T16:44:54.127Z,8.80
2022-11-02T16:47:27.397Z,8.70
2022-11-02T16:49:53.912Z,8.50
2022-11-02T16:52:20.409Z,8.40
2022-11-02T16:54:47.273Z,8.40
2022-11-02T16:57:22.263Z,8.40
2022-11-02T17:00:09.418Z,8.40
2022-11-02T17:02:40.108Z,8.40
2022-11-02T17:05:27.398Z,8.40
2022-11-02T17:07:57.022Z,8.30
2022-11-02T17:10:25.421Z,8.40
2022-11-02T17:12:52.145Z,8.40
2022-11-02T17:15:19.916Z,8.40
2022-11-02T17:17:46.826Z,8.30
2022-11-02T17:20:16.120Z,8.20
2022-11-02T17:23:12.238Z,8.20
2022-11-02T17:25:40.001Z,8.20
2022-11-02T17:28:25.299Z,8.20
2022-11-02T17:30:52.123Z,8.10
2022-11-02T17:33:23.888Z,8.00
2022-11-02T17:35:51.590Z,7.90
2022-11-02T17:38:19.275Z,7.80
2022-11-02T17:40:45.846Z,7.80
2022-11-02T17:43:12.447Z,7.70
2022-11-02T17:45:39.094Z,7.60
2022-11-02T17:48:06.769Z,7.60
2022-11-02T17:50:34.365Z,7.60
2022-11-02T17:53:01.396Z,7.60
2022-11-02T17:55:29.292Z,7.60
2022-11-02T17:57:56.218Z,7.60
2022-11-02T18:00:23.611Z,7.60
2022-11-02T18:02:51.491Z,7.60
2022-11-02T18:05:28.390Z,7.70
2022-11-02T18:07:55.906Z,7.60
2022-11-02T18:10:23.875Z,7.50
2022-11-02T18:12:52.059Z,7.40
2022-11-02T18:15:19.996Z,7.40
2022-11-02T18:17:46.809Z,7.30
2022-11-02T18:20:14.029Z,7.20
2022-11-02T18:22:40.597Z,7.10
2022-11-02T18:25:08.310Z,7.00
2022-11-02T18:27:35.416Z,7.00
2022-11-02T18:30:02.153Z,6.90
2022-11-02T18:32:28.720Z,6.80
2022-11-02T18:34:55.340Z,6.90
2022-11-02T18:37:22.994Z,6.80
2022-11-02T18:39:49.600Z,6.80
2022-11-02T18:42:16.127Z,6.80
2022-11-02T18:44:42.674Z,6.80
2022-11-02T18:47:09.525Z,6.70
2022-11-02T18:49:36.053Z,6.60
2022-11-02T18:52:02.645Z,6.60
2022-11-02T18:54:29.389Z,6.60
2022-11-02T18:56:55.944Z,6.70
2022-11-02T18:59:22.497Z,6.70
2022-11-02T19:01:49.143Z,6.70
2022-11-02T19:04:17.723Z,6.60
2022-11-02T19:07:03.366Z,6.60
2022-11-02T19:09:31.629Z,6.50
2022-11-02T19:12:01.354Z,6.40
2022-11-02T19:14:29.205Z,6.40
2022-11-02T19:16:55.949Z,6.40
2022-11-02T19:19:23.171Z,6.30
2022-11-02T19:21:49.766Z,6.20
2022-11-02T19:24:16.320Z,6.20
2022-11-02T19:26:42.844Z,6.20
2022-11-02T19:32:00.325Z,6.30
2022-11-02T19:34:26.875Z,6.10
2022-11-02T19:36:53.786Z,6.20
2022-11-02T19:39:20.317Z,6.00
2022-11-02T19:41:51.716Z,5.90
2022-11-02T19:44:18.631Z,5.80
2022-11-02T19:46:45.327Z,5.80
2022-11-02T19:49:11.898Z,5.80
2022-11-02T19:51:38.903Z,5.80
2022-11-02T19:54:05.591Z,5.80
2022-11-02T19:56:33.256Z,5.80
2022-11-02T19:58:59.880Z,5.70
2022-11-02T20:01:27.935Z,5.70
2022-11-02T20:03:54.988Z,5.80
2022-11-02T20:06:26.212Z,5.70
2022-11-02T20:08:53.559Z,5.70
2022-11-02T20:11:20.298Z,5.60
2022-11-02T20:13:47.466Z,5.60
2022-11-02T20:16:15.874Z,5.70
2022-11-02T20:18:42.954Z,5.60
2022-11-02T20:21:10.959Z,5.60
2022-11-02T20:23:37.744Z,5.70
2022-11-02T20:26:05.805Z,5.60
2022-11-02T20:28:32.549Z,5.50
2022-11-02T20:30:59.247Z,5.60
2022-11-02T20:33:25.763Z,5.60
2022-11-02T20:35:52.411Z,5.60
2022-11-02T20:38:18.923Z,5.50
2022-11-02T20:40:45.465Z,5.50
2022-11-02T20:43:12.010Z,5.40
2022-11-02T20:45:38.566Z,5.50
2022-11-02T20:48:05.379Z,5.50
2022-11-02T20:50:32.512Z,5.50
2022-11-02T20:52:59.857Z,5.40
2022-11-02T20:55:26.433Z,5.50
2022-11-02T20:57:52.972Z,5.40
2022-11-02T21:00:19.819Z,5.30
2022-11-02T21:02:46.499Z,5.30
2022-11-02T21:05:13.507Z,5.30
2022-11-02T21:07:40.154Z,5.30
2022-11-02T21:10:07.190Z,5.30
2022-11-02T21:12:52.488Z,5.20
2022-11-02T21:15:19.098Z,5.20
2022-11-02T21:17:45.624Z,5.20
2022-11-02T21:20:32.616Z,5.20
2022-11-02T21:23:01.397Z,5.20
2022-11-02T21:25:28.222Z,5.10
2022-11-02T21:27:55.671Z,5.20
2022-11-02T21:30:22.324Z,5.20
2022-11-02T21:32:52.616Z,5.20
2022-11-02T21:35:19.549Z,5.20
2022-11-02T21:37:46.399Z,5.10
2022-11-02T21:40:13.023Z,5.00
2022-11-02T21:42:39.847Z,5.00
2022-11-02T21:45:06.838Z,5.00
2022-11-02T21:47:36.363Z,5.10
2022-11-02T21:50:04.924Z,5.10
2022-11-02T21:52:34.390Z,5.10
2022-11-02T21:55:01.171Z,5.00
2022-11-02T21:57:27.987Z,4.90
2022-11-02T21:59:55.073Z,4.90
2022-11-02T22:02:22.346Z,4.90
2022-11-02T22:04:53.633Z,4.90
2022-11-02T22:07:23.360Z,5.00
2022-11-02T22:09:49.994Z,5.00
2022-11-02T22:12:35.364Z,5.00
2022-11-02T22:15:01.992Z,4.90
2022-11-02T22:17:48.712Z,4.90
2022-11-02T22:20:15.918Z,4.80
2022-11-02T22:22:42.536Z,4.80
2022-11-02T22:25:09.200Z,4.70
2022-11-02T22:27:35.920Z,4.70
2022-11-02T22:30:02.546Z,4.70
2022-11-02T22:32:29.095Z,4.70
2022-11-02T22:34:55.769Z,4.70
2022-11-02T22:37:41.297Z,4.70
2022-11-02T22:40:08.115Z,4.70
2022-11-02T22:42:38.261Z,4.80
2022-11-02T22:45:08.975Z,4.70
2022-11-02T22:47:35.509Z,4.70
2022-11-02T22:50:02.082Z,4.70
2022-11-02T22:52:28.614Z,4.70
2022-11-02T22:54:55.271Z,4.60
2022-11-02T22:57:21.810Z,4.60
2022-11-02T22:59:48.351Z,4.60
2022-11-02T23:02:15.045Z,4.60
2022-11-02T23:04:41.757Z,4.60
2022-11-02T23:07:08.645Z,4.60
2022-11-02T23:09:35.240Z,4.50
2022-11-02T23:12:01.741Z,4.50
2022-11-02T23:14:28.278Z,4.40
2022-11-02T23:16:54.886Z,4.40
2022-11-02T23:19:31.329Z,4.40
2022-11-02T23:22:17.074Z,4.30
2022-11-02T23:25:06.748Z,4.30
2022-11-02T23:27:34.675Z,4.30
2022-11-02T23:30:20.084Z,4.40
2022-11-02T23:32:46.706Z,4.40
2022-11-02T23:35:31.974Z,4.40
2022-11-02T23:38:03.257Z,4.40
2022-11-02T23:40:30.043Z,4.50
2022-11-02T23:42:56.585Z,4.40
2022-11-02T23:45:23.131Z,4.50
2022-11-02T23:48:00.558Z,4.40
2022-11-02T23:50:50.484Z,4.30
2022-11-02T23:53:37.679Z,4.30
2022-11-02T23:56:23.924Z,4.30
2022-11-02T23:59:06.661Z,4.30
